Time;durP1;ratioP1;P1;durP2;ratioP2;P2;SDS_P1;SDS_P2;PMS_P1;PMS_P2;Temp;Humidity;BMP_temperature;BMP_pressure;BME280_temperature;BME280_humidity;BME280_pressure;Samples;Min_cycle;Max_cycle;Signal;HPM_P1;HPM_P2
2022/08/19 00:01:24;;;;;;;5.85;4.50;;;;;;;;;;5049022;28;20337;-15
2022/08/19 00:03:56;;;;;;;7.75;5.25;;;;;;;;;;5035317;28;20281;-15
2022/08/19 00:06:24;;;;;;;8.63;5.35;;;;;;;;;;5030901;28;20239;-16
2022/08/19 00:08:51;;;;;;;5.78;5.05;;;;;;;;;;5032569;28;20253;-16
2022/08/19 00:11:18;;;;;;;6.47;5.10;;;;;;;;;;5053251;28;20237;-15
2022/08/19 00:13:53;;;;;;;5.72;5.13;;;;;;;;;;5052811;28;20801;-16
2022/08/19 00:16:22;;;;;;;6.20;4.78;;;;;;;;;;5047362;28;20697;-15
2022/08/19 00:18:53;;;;;;;8.38;5.65;;;;;;;;;;5045859;28;20230;-16
2022/08/19 00:21:20;;;;;;;5.57;5.07;;;;;;;;;;5050803;28;20250;-15
2022/08/19 00:23:47;;;;;;;6.00;5.40;;;;;;;;;;5052428;28;20230;-15
2022/08/19 00:26:15;;;;;;;5.38;4.47;;;;;;;;;;5052433;28;20230;-15
2022/08/19 00:28:42;;;;;;;7.80;5.72;;;;;;;;;;5051534;28;20846;-15
2022/08/19 00:31:11;;;;;;;5.82;5.22;;;;;;;;;;5034361;28;20227;-15
2022/08/19 00:33:38;;;;;;;6.35;5.38;;;;;;;;;;5045618;28;20227;-15
2022/08/19 00:36:06;;;;;;;7.60;5.47;;;;;;;;;;5033084;28;20230;-15
2022/08/19 00:38:33;;;;;;;7.63;5.28;;;;;;;;;;5043631;28;20234;-16
2022/08/19 00:41:04;;;;;;;8.20;6.20;;;;;;;;;;5047629;28;20241;-15
2022/08/19 00:43:32;;;;;;;7.28;5.47;;;;;;;;;;5051682;28;20266;-15
2022/08/19 00:46:01;;;;;;;9.60;5.45;;;;;;;;;;5046698;28;20246;-15
2022/08/19 00:48:29;;;;;;;8.15;5.13;;;;;;;;;;5052033;28;20229;-15
2022/08/19 00:50:57;;;;;;;6.78;5.47;;;;;;;;;;5051987;28;20230;-15
2022/08/19 00:53:26;;;;;;;6.90;6.20;;;;;;;;;;5049282;28;20237;-15
2022/08/19 00:55:53;;;;;;;6.22;5.57;;;;;;;;;;5052238;28;20260;-15
2022/08/19 00:58:21;;;;;;;6.65;5.95;;;;;;;;;;5051727;28;20241;-15
2022/08/19 01:00:49;;;;;;;5.88;5.28;;;;;;;;;;5045240;28;20252;-15
2022/08/19 01:03:16;;;;;;;8.23;6.18;;;;;;;;;;5040768;28;20231;-16
2022/08/19 01:05:46;;;;;;;6.32;5.80;;;;;;;;;;5050977;28;20564;-16
2022/08/19 01:08:14;;;;;;;7.15;5.80;;;;;;;;;;5040812;28;20246;-16
2022/08/19 01:10:46;;;;;;;8.82;5.63;;;;;;;;;;5040487;28;20587;-16
2022/08/19 01:13:14;;;;;;;7.80;6.15;;;;;;;;;;5025124;28;20243;-16
2022/08/19 01:15:42;;;;;;;7.70;6.30;;;;;;;;;;5032190;28;20624;-16
2022/08/19 01:18:10;;;;;;;6.75;5.55;;;;;;;;;;5030285;28;20231;-15
2022/08/19 01:20:38;;;;;;;7.20;6.50;;;;;;;;;;5024494;28;20230;-15
2022/08/19 01:23:06;;;;;;;7.05;5.93;;;;;;;;;;5039695;28;20975;-15
2022/08/19 01:25:40;;;;;;;7.88;6.18;;;;;;;;;;5031726;28;20370;-15
2022/08/19 01:28:08;;;;;;;7.90;6.60;;;;;;;;;;5027697;28;20234;-15
2022/08/19 01:30:37;;;;;;;7.65;6.85;;;;;;;;;;5029421;28;20290;-16
2022/08/19 01:33:05;;;;;;;10.00;6.65;;;;;;;;;;5051302;28;20234;-15
2022/08/19 01:35:33;;;;;;;7.95;7.18;;;;;;;;;;5050970;28;20236;-16
2022/08/19 01:38:01;;;;;;;8.25;6.95;;;;;;;;;;5051663;28;20226;-15
2022/08/19 01:40:31;;;;;;;9.40;7.90;;;;;;;;;;5037695;28;20231;-15
2022/08/19 01:42:59;;;;;;;7.72;7.00;;;;;;;;;;5050112;28;20741;-15
2022/08/19 01:45:27;;;;;;;8.50;7.35;;;;;;;;;;5048124;28;20242;-16
2022/08/19 01:47:54;;;;;;;7.63;6.85;;;;;;;;;;5049741;28;20234;-15
2022/08/19 01:50:29;;;;;;;7.72;7.03;;;;;;;;;;5048150;28;20237;-15
2022/08/19 01:52:56;;;;;;;8.27;7.32;;;;;;;;;;5034902;28;20230;-15
2022/08/19 01:55:35;;;;;;;8.45;7.15;;;;;;;;;;5051298;28;20230;-15
2022/08/19 01:58:08;;;;;;;8.68;7.30;;;;;;;;;;5046559;28;20231;-15
2022/08/19 02:00:35;;;;;;;8.23;7.20;;;;;;;;;;5037935;28;20980;-15
2022/08/19 02:03:02;;;;;;;8.45;7.22;;;;;;;;;;5031035;28;20710;-15
2022/08/19 02:05:30;;;;;;;9.82;8.40;;;;;;;;;;5040040;28;20714;-16
2022/08/19 02:07:58;;;;;;;10.00;7.70;;;;;;;;;;5050060;28;20226;-15
2022/08/19 02:10:26;;;;;;;10.20;8.15;;;;;;;;;;5043220;28;20239;-15
2022/08/19 02:12:54;;;;;;;9.65;8.05;;;;;;;;;;5042761;28;20234;-15
2022/08/19 02:15:22;;;;;;;9.13;8.25;;;;;;;;;;5021251;28;20230;-15
2022/08/19 02:17:50;;;;;;;10.82;8.25;;;;;;;;;;5043415;28;20242;-16
2022/08/19 02:20:17;;;;;;;9.05;7.47;;;;;;;;;;5050613;28;20558;-16
2022/08/19 02:22:44;;;;;;;7.90;7.10;;;;;;;;;;5039219;28;20252;-15
2022/08/19 02:25:12;;;;;;;8.88;7.07;;;;;;;;;;5031107;28;20245;-16
2022/08/19 02:27:39;;;;;;;9.02;7.32;;;;;;;;;;5043411;28;20606;-15
2022/08/19 02:30:10;;;;;;;9.38;6.95;;;;;;;;;;5050963;28;20237;-16
2022/08/19 02:32:41;;;;;;;8.10;6.97;;;;;;;;;;5050305;28;21044;-15
2022/08/19 02:35:11;;;;;;;10.15;7.75;;;;;;;;;;5047270;28;20253;-15
2022/08/19 02:40:24;;;;;;;9.77;7.90;;;;;;;;;;5042687;28;20240;-15
2022/08/19 02:42:51;;;;;;;8.43;7.40;;;;;;;;;;5032194;28;20249;-15
2022/08/19 02:45:20;;;;;;;9.68;7.95;;;;;;;;;;5030061;28;20708;-16
2022/08/19 02:47:48;;;;;;;9.40;8.13;;;;;;;;;;5016526;28;20238;-16
2022/08/19 02:50:15;;;;;;;10.85;9.07;;;;;;;;;;5030097;28;20231;-16
2022/08/19 02:52:42;;;;;;;9.55;8.65;;;;;;;;;;5029998;28;20246;-15
2022/08/19 02:55:10;;;;;;;8.63;7.72;;;;;;;;;;5030134;28;21037;-16
2022/08/19 02:57:37;;;;;;;8.27;7.35;;;;;;;;;;5028684;28;20546;-16
2022/08/19 03:00:05;;;;;;;8.35;7.55;;;;;;;;;;5030027;28;20231;-15
2022/08/19 03:02:34;;;;;;;9.27;6.70;;;;;;;;;;5029941;28;20230;-15
2022/08/19 03:05:03;;;;;;;10.38;7.30;;;;;;;;;;5029920;28;20237;-15
2022/08/19 03:07:30;;;;;;;9.07;7.78;;;;;;;;;;5029929;28;20234;-15
2022/08/19 03:09:58;;;;;;;9.10;8.20;;;;;;;;;;5016451;28;20231;-15
2022/08/19 03:12:25;;;;;;;8.52;7.57;;;;;;;;;;5029944;28;20230;-15
2022/08/19 03:14:52;;;;;;;8.63;7.82;;;;;;;;;;5029934;28;20237;-15
2022/08/19 03:17:20;;;;;;;9.27;7.18;;;;;;;;;;5029960;28;20233;-15
2022/08/19 03:19:48;;;;;;;9.23;7.00;;;;;;;;;;5029448;28;20234;-15
2022/08/19 03:22:16;;;;;;;8.05;7.22;;;;;;;;;;5028720;28;20247;-16
2022/08/19 03:24:43;;;;;;;16.40;7.70;;;;;;;;;;5031717;28;20239;-15
2022/08/19 03:27:12;;;;;;;8.32;7.07;;;;;;;;;;5033923;28;20369;-16
2022/08/19 03:29:40;;;;;;;11.65;7.40;;;;;;;;;;5032855;28;20690;-15
2022/08/19 03:32:10;;;;;;;8.38;7.57;;;;;;;;;;5033129;28;20702;-15
2022/08/19 03:34:59;;;;;;;8.35;7.50;;;;;;;;;;5033407;28;20230;-15
2022/08/19 03:37:26;;;;;;;7.90;7.10;;;;;;;;;;5033712;28;20231;-15
2022/08/19 03:39:53;;;;;;;7.75;6.60;;;;;;;;;;5032999;28;20234;-15
2022/08/19 03:42:21;;;;;;;6.10;5.55;;;;;;;;;;5032704;28;20910;-15
2022/08/19 03:45:10;;;;;;;6.72;6.03;;;;;;;;;;5032770;28;20710;-15
2022/08/19 03:47:37;;;;;;;7.82;6.72;;;;;;;;;;5032535;28;20239;-15
2022/08/19 03:50:08;;;;;;;8.27;7.28;;;;;;;;;;5033419;28;20230;-15
2022/08/19 03:52:36;;;;;;;9.98;8.80;;;;;;;;;;5032423;28;20602;-15
2022/08/19 03:55:03;;;;;;;9.00;7.80;;;;;;;;;;5032778;28;20242;-16
2022/08/19 03:57:32;;;;;;;9.02;8.23;;;;;;;;;;5032973;28;20240;-16
2022/08/19 03:59:59;;;;;;;12.50;7.97;;;;;;;;;;5032898;28;20701;-15
2022/08/19 04:02:40;;;;;;;7.18;6.55;;;;;;;;;;5030922;28;20235;-15
2022/08/19 04:05:09;;;;;;;7.35;6.53;;;;;;;;;;5032719;28;20278;-15
2022/08/19 04:07:36;;;;;;;8.65;7.25;;;;;;;;;;5032690;28;20230;-15
2022/08/19 04:10:04;;;;;;;8.93;8.13;;;;;;;;;;5032777;28;20246;-15
2022/08/19 04:12:31;;;;;;;7.45;6.75;;;;;;;;;;5032434;28;20321;-15
2022/08/19 04:14:59;;;;;;;7.93;7.20;;;;;;;;;;5031932;28;20235;-15
2022/08/19 04:17:26;;;;;;;8.15;7.40;;;;;;;;;;5032337;28;20284;-16
2022/08/19 04:19:53;;;;;;;8.07;7.05;;;;;;;;;;5032501;28;20239;-15
2022/08/19 04:22:22;;;;;;;7.18;6.47;;;;;;;;;;5031741;28;20247;-16
2022/08/19 04:24:53;;;;;;;7.75;7.03;;;;;;;;;;5032170;28;20239;-15
2022/08/19 04:27:20;;;;;;;7.30;6.60;;;;;;;;;;5032287;28;20230;-15
2022/08/19 04:29:48;;;;;;;7.50;6.80;;;;;;;;;;5032420;28;20235;-15
2022/08/19 04:32:16;;;;;;;8.55;7.00;;;;;;;;;;5032259;28;20226;-15
2022/08/19 04:34:43;;;;;;;9.05;7.28;;;;;;;;;;5032446;28;20226;-15
2022/08/19 04:37:33;;;;;;;10.93;7.45;;;;;;;;;;5030969;28;20231;-15
2022/08/19 04:42:47;;;;;;;8.38;7.18;;;;;;;;;;5032189;28;20234;-15
2022/08/19 04:45:15;;;;;;;8.63;6.97;;;;;;;;;;5031791;28;20271;-16
2022/08/19 04:47:44;;;;;;;7.70;7.00;;;;;;;;;;5031669;28;20241;-15
2022/08/19 04:50:24;;;;;;;7.53;6.80;;;;;;;;;;5031922;28;20273;-15
2022/08/19 04:52:53;;;;;;;9.95;7.30;;;;;;;;;;5031855;28;20227;-15
2022/08/19 04:55:21;;;;;;;6.80;6.20;;;;;;;;;;5031747;28;20243;-15
2022/08/19 04:57:48;;;;;;;7.55;6.32;;;;;;;;;;5031641;28;20239;-15
2022/08/19 05:00:16;;;;;;;7.00;6.30;;;;;;;;;;5031675;28;20998;-15
2022/08/19 05:02:43;;;;;;;7.47;5.97;;;;;;;;;;5031230;28;20726;-16
2022/08/19 05:05:10;;;;;;;8.27;6.35;;;;;;;;;;5032036;28;20241;-15
2022/08/19 05:07:38;;;;;;;7.47;6.28;;;;;;;;;;5031553;28;21044;-16
2022/08/19 05:10:07;;;;;;;7.38;6.57;;;;;;;;;;5031546;28;20713;-16
2022/08/19 05:12:35;;;;;;;7.40;6.70;;;;;;;;;;5031667;28;20233;-15
2022/08/19 05:15:02;;;;;;;7.85;6.40;;;;;;;;;;5031525;28;20292;-15
2022/08/19 05:17:30;;;;;;;9.27;6.20;;;;;;;;;;5026368;28;21003;-15
2022/08/19 05:22:50;;;;;;;8.75;6.72;;;;;;;;;;5030948;28;21022;-15
2022/08/19 05:25:19;;;;;;;6.95;6.25;;;;;;;;;;5031594;28;20283;-16
2022/08/19 05:27:47;;;;;;;7.50;6.45;;;;;;;;;;5030864;28;20692;-16
2022/08/19 05:30:14;;;;;;;9.30;7.22;;;;;;;;;;5030805;28;20237;-15
2022/08/19 05:32:42;;;;;;;8.82;6.82;;;;;;;;;;5030884;28;20233;-16
2022/08/19 05:35:09;;;;;;;7.20;6.53;;;;;;;;;;5031351;28;20241;-15
2022/08/19 05:37:36;;;;;;;9.02;7.13;;;;;;;;;;5031279;28;20258;-15
2022/08/19 05:40:04;;;;;;;7.20;6.40;;;;;;;;;;5031008;28;21768;-15
2022/08/19 05:42:33;;;;;;;8.02;6.95;;;;;;;;;;5030485;28;20238;-16
2022/08/19 05:45:01;;;;;;;8.38;7.40;;;;;;;;;;5030634;28;20235;-15
2022/08/19 05:47:28;;;;;;;8.60;6.80;;;;;;;;;;5030155;28;20235;-15
2022/08/19 05:49:55;;;;;;;11.00;7.25;;;;;;;;;;5030773;28;20237;-15
2022/08/19 05:52:23;;;;;;;11.55;8.10;;;;;;;;;;5031829;28;20223;-16
2022/08/19 05:54:54;;;;;;;10.80;7.80;;;;;;;;;;5022860;28;20599;-16
2022/08/19 05:57:21;;;;;;;8.50;7.05;;;;;;;;;;5020807;28;20231;-14
2022/08/19 05:59:51;;;;;;;8.07;7.20;;;;;;;;;;5030588;28;20227;-15
2022/08/19 06:02:24;;;;;;;8.50;7.40;;;;;;;;;;5030781;28;20230;-15
2022/08/19 06:04:52;;;;;;;8.30;7.40;;;;;;;;;;5030632;28;20353;-15
2022/08/19 06:07:20;;;;;;;9.93;7.75;;;;;;;;;;5030680;28;20234;-15
2022/08/19 06:09:47;;;;;;;10.20;8.35;;;;;;;;;;5030660;28;20238;-15
2022/08/19 06:12:28;;;;;;;16.10;10.07;;;;;;;;;;5031862;28;20227;-15
2022/08/19 06:14:57;;;;;;;13.75;10.63;;;;;;;;;;5040991;28;20690;-15
2022/08/19 06:17:29;;;;;;;17.40;12.73;;;;;;;;;;5030008;28;20288;-16
2022/08/19 06:19:58;;;;;;;18.30;12.75;;;;;;;;;;5030666;28;20285;-16
2022/08/19 06:22:25;;;;;;;15.88;14.23;;;;;;;;;;5030390;28;20251;-16
2022/08/19 06:24:53;;;;;;;18.20;16.38;;;;;;;;;;5031029;28;20242;-15
2022/08/19 06:27:21;;;;;;;22.73;17.88;;;;;;;;;;5029941;28;20241;-15
2022/08/19 06:29:48;;;;;;;20.67;18.48;;;;;;;;;;5030125;28;20247;-15
2022/08/19 06:32:17;;;;;;;23.48;20.88;;;;;;;;;;5030182;28;20227;-15
2022/08/19 06:34:44;;;;;;;23.13;20.38;;;;;;;;;;5030204;28;20238;-15
2022/08/19 06:37:12;;;;;;;23.45;19.70;;;;;;;;;;5029818;28;20231;-16
2022/08/19 06:39:40;;;;;;;21.08;18.33;;;;;;;;;;5030083;28;20231;-16
2022/08/19 06:42:11;;;;;;;19.15;15.73;;;;;;;;;;5029826;28;20334;-15
2022/08/19 06:44:39;;;;;;;16.23;14.23;;;;;;;;;;5027201;28;20258;-16
2022/08/19 06:47:10;;;;;;;16.20;12.75;;;;;;;;;;5028064;28;20227;-16
2022/08/19 06:49:50;;;;;;;13.15;11.75;;;;;;;;;;5027137;28;20289;-16
2022/08/19 06:52:19;;;;;;;15.88;10.40;;;;;;;;;;5029474;28;20273;-15
2022/08/19 06:54:47;;;;;;;11.23;9.60;;;;;;;;;;5030379;28;20246;-15
2022/08/19 06:57:22;;;;;;;11.70;9.57;;;;;;;;;;5030567;28;20292;-16
2022/08/19 06:59:49;;;;;;;18.73;9.98;;;;;;;;;;5032313;28;20237;-16
2022/08/19 07:02:17;;;;;;;14.85;10.00;;;;;;;;;;5033214;28;20239;-16
2022/08/19 07:04:50;;;;;;;14.68;11.30;;;;;;;;;;5030786;28;20230;-15
2022/08/19 07:07:19;;;;;;;14.43;10.63;;;;;;;;;;5029914;28;20226;-15
2022/08/19 07:09:48;;;;;;;14.13;9.88;;;;;;;;;;5033417;28;20230;-16
2022/08/19 07:12:28;;;;;;;12.05;9.45;;;;;;;;;;5033745;28;20726;-16
2022/08/19 07:14:57;;;;;;;16.90;9.13;;;;;;;;;;5033240;28;20234;-15
2022/08/19 07:17:25;;;;;;;14.93;9.00;;;;;;;;;;5033389;28;20609;-15
2022/08/19 07:19:54;;;;;;;13.15;9.30;;;;;;;;;;5033243;28;20235;-15
2022/08/19 07:22:23;;;;;;;14.80;8.27;;;;;;;;;;5032241;28;20820;-16
2022/08/19 07:24:50;;;;;;;10.18;8.68;;;;;;;;;;5034806;28;20234;-15
2022/08/19 07:27:18;;;;;;;10.65;9.10;;;;;;;;;;5033316;28;20976;-15
2022/08/19 07:29:51;;;;;;;11.40;10.20;;;;;;;;;;5033657;28;20258;-15
2022/08/19 07:32:23;;;;;;;12.70;10.38;;;;;;;;;;5032345;28;20242;-15
2022/08/19 07:34:52;;;;;;;18.55;11.70;;;;;;;;;;5033494;28;21031;-15
2022/08/19 07:37:21;;;;;;;19.13;10.07;;;;;;;;;;5033448;28;20238;-16
2022/08/19 07:39:48;;;;;;;20.25;10.05;;;;;;;;;;5032782;28;20231;-15
2022/08/19 07:42:16;;;;;;;13.63;9.68;;;;;;;;;;5031763;28;20237;-15
2022/08/19 07:44:44;;;;;;;12.25;8.80;;;;;;;;;;5032498;28;20262;-16
2022/08/19 07:47:17;;;;;;;17.15;8.27;;;;;;;;;;5030541;28;21177;-15
2022/08/19 07:50:05;;;;;;;13.80;8.70;;;;;;;;;;5031452;28;20242;-16
2022/08/19 07:52:35;;;;;;;13.43;8.85;;;;;;;;;;5033073;28;20285;-15
2022/08/19 07:55:03;;;;;;;13.80;9.23;;;;;;;;;;5032839;28;20235;-16
2022/08/19 07:57:31;;;;;;;16.50;10.73;;;;;;;;;;5031796;28;20333;-16
2022/08/19 07:59:59;;;;;;;16.92;9.80;;;;;;;;;;5032291;28;20231;-15
2022/08/19 08:02:26;;;;;;;14.25;9.85;;;;;;;;;;5030564;28;20290;-15
2022/08/19 08:10:25;;;;;;;14.60;12.07;;;;;;;;;;5030339;28;20239;-16
2022/08/19 08:12:55;;;;;;;13.15;10.73;;;;;;;;;;5033014;28;20266;-16
2022/08/19 08:15:38;;;;;;;15.95;11.02;;;;;;;;;;5031477;28;20257;-15
2022/08/19 08:18:09;;;;;;;14.85;10.25;;;;;;;;;;5032443;28;20241;-15
2022/08/19 08:20:36;;;;;;;15.90;10.68;;;;;;;;;;5029617;28;20682;-16
2022/08/19 08:25:58;;;;;;;16.00;11.40;;;;;;;;;;4997756;28;20242;-16
2022/08/19 08:28:27;;;;;;;15.10;10.65;;;;;;;;;;5031400;28;20234;-16
2022/08/19 08:30:56;;;;;;;20.45;10.38;;;;;;;;;;5037754;28;20235;-15
2022/08/19 08:33:24;;;;;;;14.63;10.68;;;;;;;;;;5032264;28;20237;-16
2022/08/19 08:36:01;;;;;;;16.63;9.90;;;;;;;;;;5033168;28;20258;-16
2022/08/19 08:38:31;;;;;;;23.35;12.00;;;;;;;;;;5042720;28;20237;-15
2022/08/19 08:41:07;;;;;;;16.20;11.02;;;;;;;;;;5032619;28;20309;-15
2022/08/19 08:43:35;;;;;;;16.25;10.52;;;;;;;;;;5032189;28;20241;-16
2022/08/19 08:46:03;;;;;;;24.17;11.90;;;;;;;;;;5031830;28;20226;-16
2022/08/19 08:48:33;;;;;;;29.90;14.02;;;;;;;;;;5030607;28;20238;-16
2022/08/19 08:51:00;;;;;;;27.92;13.07;;;;;;;;;;5032214;28;20292;-16
2022/08/19 08:53:32;;;;;;;16.02;13.25;;;;;;;;;;5026733;28;21063;-15
2022/08/19 08:56:06;;;;;;;23.95;14.80;;;;;;;;;;5023347;28;21067;-15
2022/08/19 08:58:41;;;;;;;20.88;13.82;;;;;;;;;;5027927;28;20337;-15
2022/08/19 09:01:09;;;;;;;20.08;13.32;;;;;;;;;;5029325;28;20667;-16
2022/08/19 09:03:37;;;;;;;21.83;15.43;;;;;;;;;;5028844;28;20329;-16
2022/08/19 09:06:06;;;;;;;23.48;17.60;;;;;;;;;;5030123;28;20257;-16
2022/08/19 09:08:41;;;;;;;21.27;15.48;;;;;;;;;;5033615;28;20235;-15
2022/08/19 09:11:11;;;;;;;21.08;15.77;;;;;;;;;;5028645;28;20238;-15
2022/08/19 09:13:42;;;;;;;24.42;20.00;;;;;;;;;;5032305;28;20231;-15
2022/08/19 09:16:11;;;;;;;21.60;15.10;;;;;;;;;;5032747;28;20662;-15
2022/08/19 09:18:42;;;;;;;19.10;15.48;;;;;;;;;;5030378;28;20266;-15
2022/08/19 09:21:10;;;;;;;23.15;18.58;;;;;;;;;;5028574;28;20754;-16
2022/08/19 09:23:37;;;;;;;27.58;19.77;;;;;;;;;;5030217;28;20235;-16
2022/08/19 09:26:09;;;;;;;25.88;19.38;;;;;;;;;;5031850;28;20231;-15
2022/08/19 09:28:38;;;;;;;22.55;17.40;;;;;;;;;;5029315;28;20243;-16
2022/08/19 09:31:10;;;;;;;24.73;17.45;;;;;;;;;;5029031;28;20745;-16
2022/08/19 09:33:37;;;;;;;23.48;17.98;;;;;;;;;;5032210;28;20235;-15
2022/08/19 09:36:06;;;;;;;28.33;21.40;;;;;;;;;;5029483;28;20234;-16
2022/08/19 09:38:35;;;;;;;24.42;19.50;;;;;;;;;;5024972;28;20241;-15
2022/08/19 09:41:13;;;;;;;25.92;19.88;;;;;;;;;;5024720;28;20258;-16
2022/08/19 09:43:40;;;;;;;27.33;20.13;;;;;;;;;;5025570;28;20277;-15
2022/08/19 09:46:15;;;;;;;32.28;22.08;;;;;;;;;;5024272;28;20354;-16
2022/08/19 09:48:48;;;;;;;30.85;21.95;;;;;;;;;;5028519;28;20237;-14
2022/08/19 09:51:15;;;;;;;26.23;20.25;;;;;;;;;;5028321;28;20241;-15
2022/08/19 09:53:43;;;;;;;33.42;20.92;;;;;;;;;;5027803;28;20728;-16
2022/08/19 09:56:12;;;;;;;32.03;22.80;;;;;;;;;;5027818;28;20231;-15
2022/08/19 09:58:39;;;;;;;26.63;19.20;;;;;;;;;;5027991;28;20264;-16
2022/08/19 10:01:07;;;;;;;30.40;21.20;;;;;;;;;;5028045;28;20230;-16
2022/08/19 10:03:34;;;;;;;26.85;19.98;;;;;;;;;;5027455;28;20736;-16
2022/08/19 10:06:03;;;;;;;29.45;22.05;;;;;;;;;;5026986;28;20234;-16
2022/08/19 10:08:31;;;;;;;28.55;21.52;;;;;;;;;;5027835;28;20249;-16
2022/08/19 10:11:00;;;;;;;25.77;20.90;;;;;;;;;;5027701;28;21077;-16
2022/08/19 10:13:49;;;;;;;29.08;19.02;;;;;;;;;;5026887;28;20238;-16
2022/08/19 10:16:18;;;;;;;20.58;17.60;;;;;;;;;;5028086;28;20242;-16
2022/08/19 10:18:47;;;;;;;19.90;16.67;;;;;;;;;;5026187;28;20340;-16
2022/08/19 10:21:16;;;;;;;18.00;15.25;;;;;;;;;;5029097;28;20230;-15
2022/08/19 10:23:45;;;;;;;18.88;14.88;;;;;;;;;;5026641;28;20240;-15
2022/08/19 10:26:13;;;;;;;17.17;14.00;;;;;;;;;;5028635;28;20591;-15
2022/08/19 10:28:42;;;;;;;21.63;15.57;;;;;;;;;;5025704;28;20238;-15
2022/08/19 10:31:15;;;;;;;14.95;12.52;;;;;;;;;;5024379;28;20249;-16
2022/08/19 10:33:46;;;;;;;12.30;10.98;;;;;;;;;;5026430;28;20288;-16
2022/08/19 10:36:22;;;;;;;11.52;10.32;;;;;;;;;;5027961;28;20238;-15
2022/08/19 10:38:50;;;;;;;11.15;9.52;;;;;;;;;;5026757;28;20318;-16
2022/08/19 10:41:23;;;;;;;14.25;12.18;;;;;;;;;;5026301;28;20256;-15
2022/08/19 10:43:52;;;;;;;14.63;11.65;;;;;;;;;;5026732;28;20713;-16
2022/08/19 10:46:21;;;;;;;10.98;9.23;;;;;;;;;;5027363;28;21047;-16
2022/08/19 10:48:48;;;;;;;11.85;9.50;;;;;;;;;;5026117;28;20249;-16
2022/08/19 10:54:02;;;;;;;10.88;8.82;;;;;;;;;;5026800;28;20228;-16
2022/08/19 10:59:18;;;;;;;9.63;8.60;;;;;;;;;;5026969;28;20235;-15
2022/08/19 11:01:47;;;;;;;10.93;9.27;;;;;;;;;;5025415;28;20230;-16
2022/08/19 11:04:17;;;;;;;11.70;9.40;;;;;;;;;;5027758;28;20230;-16
2022/08/19 11:06:47;;;;;;;11.95;9.93;;;;;;;;;;5026571;28;20237;-16
2022/08/19 11:09:14;;;;;;;15.23;10.95;;;;;;;;;;5027389;28;20766;-16
2022/08/19 11:11:42;;;;;;;15.20;10.98;;;;;;;;;;5026629;28;21095;-15
2022/08/19 11:14:10;;;;;;;11.75;10.30;;;;;;;;;;5022684;28;20237;-16
2022/08/19 11:16:38;;;;;;;15.82;12.07;;;;;;;;;;5027573;28;20231;-15
2022/08/19 11:19:08;;;;;;;20.42;15.20;;;;;;;;;;5025511;28;20235;-16
2022/08/19 11:21:35;;;;;;;18.10;14.90;;;;;;;;;;5024524;28;20235;-16
2022/08/19 11:24:03;;;;;;;21.88;15.98;;;;;;;;;;5024566;28;20239;-16
2022/08/19 11:26:31;;;;;;;17.73;13.90;;;;;;;;;;5028211;28;20242;-16
2022/08/19 11:28:58;;;;;;;19.05;14.98;;;;;;;;;;5025861;28;20230;-16
2022/08/19 11:31:26;;;;;;;20.33;14.30;;;;;;;;;;5027354;28;20245;-16
2022/08/19 11:33:56;;;;;;;16.10;12.68;;;;;;;;;;5025926;28;20227;-16
2022/08/19 11:36:25;;;;;;;18.85;14.32;;;;;;;;;;5026682;28;20246;-15
2022/08/19 11:38:52;;;;;;;18.63;12.65;;;;;;;;;;5026150;28;20235;-16
2022/08/19 11:41:20;;;;;;;16.80;11.98;;;;;;;;;;5026312;28;20231;-15
2022/08/19 11:43:47;;;;;;;16.80;11.82;;;;;;;;;;5026060;28;20715;-16
2022/08/19 11:46:15;;;;;;;13.77;11.05;;;;;;;;;;5028618;28;20235;-16
2022/08/19 11:48:42;;;;;;;17.73;11.23;;;;;;;;;;5030556;28;20273;-15
2022/08/19 11:51:10;;;;;;;13.30;10.93;;;;;;;;;;5026770;28;20601;-16
2022/08/19 11:53:39;;;;;;;12.48;9.63;;;;;;;;;;5031166;28;20253;-15
2022/08/19 11:56:07;;;;;;;12.57;9.85;;;;;;;;;;5030027;28;20227;-15
2022/08/19 11:58:34;;;;;;;11.07;9.02;;;;;;;;;;5030273;28;20231;-15
2022/08/19 12:01:02;;;;;;;12.90;9.85;;;;;;;;;;5029333;28;20230;-15
2022/08/19 12:03:30;;;;;;;12.82;9.88;;;;;;;;;;5029955;28;20238;-15
2022/08/19 12:05:57;;;;;;;12.18;9.80;;;;;;;;;;5029603;28;20769;-16
2022/08/19 12:08:25;;;;;;;11.70;9.75;;;;;;;;;;5028071;28;20720;-16
2022/08/19 12:10:53;;;;;;;13.00;8.98;;;;;;;;;;5029598;28;20226;-16
2022/08/19 12:13:21;;;;;;;10.85;9.02;;;;;;;;;;5029201;28;20234;-16
2022/08/19 12:15:48;;;;;;;14.25;11.10;;;;;;;;;;5029964;28;20231;-16
2022/08/19 12:18:16;;;;;;;15.38;10.32;;;;;;;;;;5030060;28;20682;-16
2022/08/19 12:20:43;;;;;;;13.55;9.32;;;;;;;;;;5029459;28;20226;-15
2022/08/19 12:23:10;;;;;;;13.20;10.25;;;;;;;;;;5029586;28;20972;-15
2022/08/19 12:25:38;;;;;;;15.48;10.68;;;;;;;;;;5029903;28;20251;-16
2022/08/19 12:28:07;;;;;;;12.15;10.15;;;;;;;;;;5030049;28;20238;-16
2022/08/19 12:30:34;;;;;;;17.55;11.70;;;;;;;;;;5029155;28;20249;-16
2022/08/19 12:33:01;;;;;;;12.02;9.65;;;;;;;;;;5029439;28;20237;-16
2022/08/19 12:35:30;;;;;;;14.05;10.68;;;;;;;;;;5028739;28;20235;-16
2022/08/19 12:37:58;;;;;;;14.15;11.07;;;;;;;;;;5029980;28;20234;-16
2022/08/19 12:40:26;;;;;;;12.55;10.10;;;;;;;;;;5028657;28;20230;-16
2022/08/19 12:42:53;;;;;;;12.95;10.10;;;;;;;;;;5028825;28;20235;-15
2022/08/19 12:45:22;;;;;;;12.85;9.43;;;;;;;;;;5024151;28;20300;-15
2022/08/19 12:47:49;;;;;;;14.15;10.70;;;;;;;;;;5028823;28;20238;-15
2022/08/19 12:50:21;;;;;;;14.70;10.80;;;;;;;;;;5029454;28;20248;-15
2022/08/19 12:52:48;;;;;;;14.63;10.70;;;;;;;;;;5027926;28;20253;-15
2022/08/19 12:55:18;;;;;;;14.88;11.10;;;;;;;;;;5030790;28;20237;-16
2022/08/19 12:57:45;;;;;;;18.52;13.75;;;;;;;;;;5025454;28;20744;-16
2022/08/19 13:00:14;;;;;;;14.63;11.27;;;;;;;;;;5029919;28;20239;-16
2022/08/19 13:02:43;;;;;;;15.27;11.18;;;;;;;;;;5027961;28;20242;-15
2022/08/19 13:05:11;;;;;;;13.48;11.02;;;;;;;;;;5022763;28;20239;-15
2022/08/19 13:07:39;;;;;;;15.90;11.70;;;;;;;;;;5028940;28;20229;-17
2022/08/19 13:10:07;;;;;;;14.73;11.65;;;;;;;;;;5028524;28;20238;-16
2022/08/19 13:12:34;;;;;;;16.38;10.93;;;;;;;;;;5029178;28;20242;-16
2022/08/19 13:15:02;;;;;;;13.73;10.48;;;;;;;;;;5027644;28;20231;-16
2022/08/19 13:17:37;;;;;;;13.60;11.65;;;;;;;;;;5025921;28;20266;-16
2022/08/19 13:20:07;;;;;;;13.88;10.98;;;;;;;;;;5028279;28;20231;-16
2022/08/19 13:22:35;;;;;;;14.18;10.80;;;;;;;;;;5028801;28;20725;-15
2022/08/19 13:25:03;;;;;;;14.60;11.05;;;;;;;;;;5026817;28;20235;-15
2022/08/19 13:27:30;;;;;;;13.60;10.27;;;;;;;;;;5030548;28;20262;-15
2022/08/19 13:35:28;;;;;;;13.27;10.80;;;;;;;;;;5027692;28;20245;-15
2022/08/19 13:37:56;;;;;;;15.75;10.38;;;;;;;;;;5029190;28;20238;-16
2022/08/19 13:40:23;;;;;;;12.43;9.45;;;;;;;;;;5028357;28;21002;-16
2022/08/19 13:42:51;;;;;;;12.68;9.88;;;;;;;;;;5027893;28;20282;-16
2022/08/19 13:45:20;;;;;;;17.27;10.60;;;;;;;;;;5028240;28;20234;-16
2022/08/19 13:47:48;;;;;;;11.77;10.05;;;;;;;;;;5026381;28;20231;-16
2022/08/19 13:50:16;;;;;;;11.25;9.35;;;;;;;;;;5029771;28;20242;-16
2022/08/19 13:52:44;;;;;;;10.68;8.93;;;;;;;;;;5026644;28;20270;-15
2022/08/19 13:55:12;;;;;;;9.95;8.95;;;;;;;;;;5029555;28;20230;-16
2022/08/19 13:57:39;;;;;;;11.55;8.90;;;;;;;;;;5027254;28;20234;-15
2022/08/19 14:00:07;;;;;;;12.88;9.13;;;;;;;;;;5029121;28;20230;-16
2022/08/19 14:02:35;;;;;;;9.35;8.35;;;;;;;;;;5028901;28;20235;-15
2022/08/19 14:05:02;;;;;;;10.68;8.32;;;;;;;;;;5027292;28;20234;-15
2022/08/19 14:07:29;;;;;;;11.95;8.45;;;;;;;;;;5028870;28;20237;-15
2022/08/19 14:09:58;;;;;;;12.85;8.30;;;;;;;;;;5027014;28;20262;-16
2022/08/19 14:12:25;;;;;;;13.80;8.85;;;;;;;;;;5028637;28;20230;-16
2022/08/19 14:14:55;;;;;;;11.10;8.63;;;;;;;;;;5026963;28;20997;-16
2022/08/19 14:17:22;;;;;;;9.35;8.10;;;;;;;;;;5029410;28;20234;-16
2022/08/19 14:19:50;;;;;;;11.93;8.90;;;;;;;;;;5023759;28;20262;-16
2022/08/19 14:22:18;;;;;;;12.05;9.02;;;;;;;;;;5028596;28;20998;-15
2022/08/19 14:24:49;;;;;;;10.10;8.65;;;;;;;;;;5026513;28;20964;-16
2022/08/19 14:27:18;;;;;;;8.90;7.93;;;;;;;;;;5028603;28;20230;-16
2022/08/19 14:29:46;;;;;;;9.65;8.35;;;;;;;;;;5027737;28;20250;-15
2022/08/19 14:32:13;;;;;;;11.52;9.90;;;;;;;;;;5027334;28;20258;-15
2022/08/19 14:34:45;;;;;;;12.65;8.80;;;;;;;;;;5027268;28;20318;-15
2022/08/19 14:37:13;;;;;;;10.20;8.68;;;;;;;;;;5019699;28;20245;-16
2022/08/19 14:39:41;;;;;;;12.60;9.77;;;;;;;;;;5028683;28;20230;-15
2022/08/19 14:42:08;;;;;;;11.77;9.20;;;;;;;;;;5025584;28;20234;-15
2022/08/19 14:44:39;;;;;;;11.25;9.25;;;;;;;;;;5028951;28;20246;-16
2022/08/19 14:47:07;;;;;;;12.35;8.18;;;;;;;;;;5026533;28;20235;-17
2022/08/19 14:49:36;;;;;;;11.75;9.18;;;;;;;;;;5029210;28;20999;-15
2022/08/19 14:52:12;;;;;;;11.10;8.55;;;;;;;;;;5023639;28;20289;-16
2022/08/19 14:54:39;;;;;;;10.65;9.23;;;;;;;;;;5027928;28;20729;-16
2022/08/19 14:57:07;;;;;;;10.57;9.18;;;;;;;;;;5027570;28;20272;-16
2022/08/19 14:59:35;;;;;;;10.27;9.23;;;;;;;;;;5026851;28;20230;-15
2022/08/19 15:02:03;;;;;;;10.07;9.07;;;;;;;;;;5026410;28;21054;-16
2022/08/19 15:04:51;;;;;;;11.07;8.45;;;;;;;;;;5024604;28;20952;-16
2022/08/19 15:07:24;;;;;;;9.63;8.63;;;;;;;;;;5028672;28;20694;-16
2022/08/19 15:09:56;;;;;;;11.65;9.88;;;;;;;;;;5025855;28;20348;-15